sensor_id;sensor_type;location;lat;lon;timestamp;P1;durP1;ratioP1;P2;durP2;ratioP2
15858;SDS011;8029;52.202;7.308;2023-05-07T00:00:36;5.93;;;4.45;;
15858;SDS011;8029;52.202;7.308;2023-05-07T00:03:02;4.07;;;3.67;;
15858;SDS011;8029;52.202;7.308;2023-05-07T00:05:28;4.80;;;4.18;;
15858;SDS011;8029;52.202;7.308;2023-05-07T00:07:54;18.67;;;3.78;;
15858;SDS011;8029;52.202;7.308;2023-05-07T00:10:20;6.50;;;4.78;;
15858;SDS011;8029;52.202;7.308;2023-05-07T00:12:46;5.07;;;4.15;;
15858;SDS011;8029;52.202;7.308;2023-05-07T00:15:12;6.43;;;3.67;;
15858;SDS011;8029;52.202;7.308;2023-05-07T00:17:38;4.40;;;3.70;;
15858;SDS011;8029;52.202;7.308;2023-05-07T00:20:05;4.20;;;3.22;;
15858;SDS011;8029;52.202;7.308;2023-05-07T00:22:31;5.30;;;3.58;;
15858;SDS011;8029;52.202;7.308;2023-05-07T00:24:57;3.90;;;3.53;;
15858;SDS011;8029;52.202;7.308;2023-05-07T00:27:24;4.15;;;3.75;;
15858;SDS011;8029;52.202;7.308;2023-05-07T00:29:50;4.57;;;4.15;;
15858;SDS011;8029;52.202;7.308;2023-05-07T00:32:16;6.60;;;4.13;;
15858;SDS011;8029;52.202;7.308;2023-05-07T00:34:42;4.50;;;4.10;;
15858;SDS011;8029;52.202;7.308;2023-05-07T00:37:08;4.07;;;3.67;;
15858;SDS011;8029;52.202;7.308;2023-05-07T00:39:35;5.20;;;4.68;;
15858;SDS011;8029;52.202;7.308;2023-05-07T00:42:01;5.03;;;3.97;;
15858;SDS011;8029;52.202;7.308;2023-05-07T00:44:27;4.00;;;3.50;;
15858;SDS011;8029;52.202;7.308;2023-05-07T00:46:54;5.18;;;4.18;;
15858;SDS011;8029;52.202;7.308;2023-05-07T00:49:21;4.30;;;3.90;;
15858;SDS011;8029;52.202;7.308;2023-05-07T00:51:47;5.10;;;4.15;;
15858;SDS011;8029;52.202;7.308;2023-05-07T00:54:13;5.22;;;4.07;;
15858;SDS011;8029;52.202;7.308;2023-05-07T00:56:39;4.88;;;4.07;;
15858;SDS011;8029;52.202;7.308;2023-05-07T00:59:05;4.50;;;4.07;;
15858;SDS011;8029;52.202;7.308;2023-05-07T01:04:07;4.38;;;3.97;;
15858;SDS011;8029;52.202;7.308;2023-05-07T01:06:33;8.43;;;4.85;;
15858;SDS011;8029;52.202;7.308;2023-05-07T01:08:59;5.07;;;4.63;;
15858;SDS011;8029;52.202;7.308;2023-05-07T01:11:25;5.72;;;4.13;;
15858;SDS011;8029;52.202;7.308;2023-05-07T01:13:51;4.90;;;4.03;;
15858;SDS011;8029;52.202;7.308;2023-05-07T01:16:17;6.25;;;5.30;;
15858;SDS011;8029;52.202;7.308;2023-05-07T01:18:43;6.15;;;4.85;;
15858;SDS011;8029;52.202;7.308;2023-05-07T01:21:12;5.50;;;5.00;;
15858;SDS011;8029;52.202;7.308;2023-05-07T01:23:39;5.32;;;4.57;;
15858;SDS011;8029;52.202;7.308;2023-05-07T01:26:05;7.72;;;4.93;;
15858;SDS011;8029;52.202;7.308;2023-05-07T01:28:31;5.95;;;5.00;;
15858;SDS011;8029;52.202;7.308;2023-05-07T01:31:00;8.55;;;5.93;;
15858;SDS011;8029;52.202;7.308;2023-05-07T01:33:27;7.68;;;6.85;;
15858;SDS011;8029;52.202;7.308;2023-05-07T01:35:56;7.78;;;5.47;;
15858;SDS011;8029;52.202;7.308;2023-05-07T01:38:25;8.93;;;6.40;;
15858;SDS011;8029;52.202;7.308;2023-05-07T01:40:51;5.95;;;4.80;;
15858;SDS011;8029;52.202;7.308;2023-05-07T01:43:17;8.88;;;5.78;;
15858;SDS011;8029;52.202;7.308;2023-05-07T01:45:43;7.10;;;6.20;;
15858;SDS011;8029;52.202;7.308;2023-05-07T01:48:10;8.10;;;6.45;;
15858;SDS011;8029;52.202;7.308;2023-05-07T01:50:37;10.88;;;7.63;;
15858;SDS011;8029;52.202;7.308;2023-05-07T01:53:03;10.82;;;6.47;;
15858;SDS011;8029;52.202;7.308;2023-05-07T01:55:29;7.32;;;6.03;;
15858;SDS011;8029;52.202;7.308;2023-05-07T01:57:55;7.82;;;6.38;;
15858;SDS011;8029;52.202;7.308;2023-05-07T02:00:21;8.40;;;6.75;;
15858;SDS011;8029;52.202;7.308;2023-05-07T02:02:47;8.25;;;7.43;;
15858;SDS011;8029;52.202;7.308;2023-05-07T02:05:13;8.32;;;6.03;;
15858;SDS011;8029;52.202;7.308;2023-05-07T02:07:39;7.47;;;6.60;;
15858;SDS011;8029;52.202;7.308;2023-05-07T02:10:05;7.00;;;6.30;;
15858;SDS011;8029;52.202;7.308;2023-05-07T02:12:32;8.00;;;7.20;;
15858;SDS011;8029;52.202;7.308;2023-05-07T02:14:59;10.38;;;7.72;;
15858;SDS011;8029;52.202;7.308;2023-05-07T02:17:25;11.57;;;7.07;;
15858;SDS011;8029;52.202;7.308;2023-05-07T02:19:51;7.50;;;6.70;;
15858;SDS011;8029;52.202;7.308;2023-05-07T02:22:17;6.88;;;5.85;;
15858;SDS011;8029;52.202;7.308;2023-05-07T02:24:43;9.77;;;7.93;;
15858;SDS011;8029;52.202;7.308;2023-05-07T02:27:09;9.80;;;7.82;;
15858;SDS011;8029;52.202;7.308;2023-05-07T02:29:35;9.55;;;7.35;;
15858;SDS011;8029;52.202;7.308;2023-05-07T02:32:01;6.50;;;5.90;;
15858;SDS011;8029;52.202;7.308;2023-05-07T02:34:27;6.72;;;6.13;;
15858;SDS011;8029;52.202;7.308;2023-05-07T02:36:53;7.07;;;6.38;;
15858;SDS011;8029;52.202;7.308;2023-05-07T02:39:20;7.47;;;6.32;;
15858;SDS011;8029;52.202;7.308;2023-05-07T02:41:46;8.25;;;7.07;;
15858;SDS011;8029;52.202;7.308;2023-05-07T02:44:12;10.15;;;7.75;;
15858;SDS011;8029;52.202;7.308;2023-05-07T02:46:38;9.90;;;6.38;;
15858;SDS011;8029;52.202;7.308;2023-05-07T02:49:04;8.20;;;7.28;;
15858;SDS011;8029;52.202;7.308;2023-05-07T02:51:31;9.43;;;8.18;;
15858;SDS011;8029;52.202;7.308;2023-05-07T02:53:57;16.33;;;8.23;;
15858;SDS011;8029;52.202;7.308;2023-05-07T02:56:25;8.82;;;7.65;;
15858;SDS011;8029;52.202;7.308;2023-05-07T02:58:51;8.95;;;7.18;;
15858;SDS011;8029;52.202;7.308;2023-05-07T03:01:17;11.25;;;7.45;;
15858;SDS011;8029;52.202;7.308;2023-05-07T03:03:43;8.57;;;7.57;;
15858;SDS011;8029;52.202;7.308;2023-05-07T03:06:09;7.53;;;6.80;;
15858;SDS011;8029;52.202;7.308;2023-05-07T03:08:35;7.93;;;7.03;;
15858;SDS011;8029;52.202;7.308;2023-05-07T03:11:01;7.53;;;6.72;;
15858;SDS011;8029;52.202;7.308;2023-05-07T03:13:27;12.65;;;7.07;;
15858;SDS011;8029;52.202;7.308;2023-05-07T03:15:53;7.75;;;6.95;;
15858;SDS011;8029;52.202;7.308;2023-05-07T03:18:20;8.80;;;6.38;;
15858;SDS011;8029;52.202;7.308;2023-05-07T03:20:46;8.95;;;7.80;;
15858;SDS011;8029;52.202;7.308;2023-05-07T03:23:12;12.10;;;7.53;;
15858;SDS011;8029;52.202;7.308;2023-05-07T03:25:38;9.32;;;7.05;;
15858;SDS011;8029;52.202;7.308;2023-05-07T03:28:04;9.90;;;7.88;;
15858;SDS011;8029;52.202;7.308;2023-05-07T03:30:30;7.55;;;6.53;;
15858;SDS011;8029;52.202;7.308;2023-05-07T03:32:56;8.05;;;7.25;;
15858;SDS011;8029;52.202;7.308;2023-05-07T03:35:22;14.82;;;8.02;;
15858;SDS011;8029;52.202;7.308;2023-05-07T03:37:48;8.20;;;7.40;;
15858;SDS011;8029;52.202;7.308;2023-05-07T03:40:14;11.13;;;8.65;;
15858;SDS011;8029;52.202;7.308;2023-05-07T03:42:40;10.18;;;8.38;;
15858;SDS011;8029;52.202;7.308;2023-05-07T03:45:06;9.18;;;7.78;;
15858;SDS011;8029;52.202;7.308;2023-05-07T03:47:33;11.27;;;9.30;;
15858;SDS011;8029;52.202;7.308;2023-05-07T03:49:59;8.63;;;7.32;;
15858;SDS011;8029;52.202;7.308;2023-05-07T03:52:25;12.68;;;8.80;;
15858;SDS011;8029;52.202;7.308;2023-05-07T03:54:51;10.43;;;8.40;;
15858;SDS011;8029;52.202;7.308;2023-05-07T03:57:17;9.90;;;7.38;;
15858;SDS011;8029;52.202;7.308;2023-05-07T03:59:43;25.10;;;8.48;;
15858;SDS011;8029;52.202;7.308;2023-05-07T04:02:10;15.50;;;8.82;;
15858;SDS011;8029;52.202;7.308;2023-05-07T04:04:36;8.95;;;7.28;;
15858;SDS011;8029;52.202;7.308;2023-05-07T04:07:02;15.77;;;7.57;;
15858;SDS011;8029;52.202;7.308;2023-05-07T04:09:28;9.40;;;8.38;;
15858;SDS011;8029;52.202;7.308;2023-05-07T04:11:54;9.60;;;7.65;;
15858;SDS011;8029;52.202;7.308;2023-05-07T04:14:20;8.30;;;7.30;;
15858;SDS011;8029;52.202;7.308;2023-05-07T04:16:46;10.43;;;9.02;;
15858;SDS011;8029;52.202;7.308;2023-05-07T04:19:12;10.90;;;8.70;;
15858;SDS011;8029;52.202;7.308;2023-05-07T04:21:38;9.07;;;8.18;;
15858;SDS011;8029;52.202;7.308;2023-05-07T04:24:04;10.20;;;8.32;;
15858;SDS011;8029;52.202;7.308;2023-05-07T04:26:30;8.90;;;7.93;;
15858;SDS011;8029;52.202;7.308;2023-05-07T04:28:56;12.98;;;8.57;;
15858;SDS011;8029;52.202;7.308;2023-05-07T04:31:24;9.68;;;8.40;;
15858;SDS011;8029;52.202;7.308;2023-05-07T04:33:50;11.98;;;9.32;;
15858;SDS011;8029;52.202;7.308;2023-05-07T04:36:16;10.88;;;9.77;;
15858;SDS011;8029;52.202;7.308;2023-05-07T04:38:42;10.55;;;8.50;;
15858;SDS011;8029;52.202;7.308;2023-05-07T04:41:08;12.77;;;9.25;;
15858;SDS011;8029;52.202;7.308;2023-05-07T04:43:34;11.38;;;7.88;;
15858;SDS011;8029;52.202;7.308;2023-05-07T04:46:00;12.05;;;9.30;;
15858;SDS011;8029;52.202;7.308;2023-05-07T04:48:26;10.02;;;8.45;;
15858;SDS011;8029;52.202;7.308;2023-05-07T04:50:53;9.10;;;8.07;;
15858;SDS011;8029;52.202;7.308;2023-05-07T04:53:20;8.70;;;7.80;;
15858;SDS011;8029;52.202;7.308;2023-05-07T04:55:46;15.30;;;8.55;;
15858;SDS011;8029;52.202;7.308;2023-05-07T04:58:13;14.88;;;10.00;;
15858;SDS011;8029;52.202;7.308;2023-05-07T05:00:39;12.15;;;10.23;;
15858;SDS011;8029;52.202;7.308;2023-05-07T05:03:06;9.80;;;8.63;;
15858;SDS011;8029;52.202;7.308;2023-05-07T05:05:32;10.23;;;8.68;;
15858;SDS011;8029;52.202;7.308;2023-05-07T05:07:58;9.95;;;8.77;;
15858;SDS011;8029;52.202;7.308;2023-05-07T05:10:24;10.88;;;9.35;;
15858;SDS011;8029;52.202;7.308;2023-05-07T05:12:50;9.45;;;8.45;;
15858;SDS011;8029;52.202;7.308;2023-05-07T05:15:16;10.05;;;9.02;;
15858;SDS011;8029;52.202;7.308;2023-05-07T05:17:42;12.63;;;9.77;;
15858;SDS011;8029;52.202;7.308;2023-05-07T05:20:09;12.55;;;8.43;;
15858;SDS011;8029;52.202;7.308;2023-05-07T05:22:36;10.07;;;9.07;;
15858;SDS011;8029;52.202;7.308;2023-05-07T05:25:02;16.15;;;10.35;;
15858;SDS011;8029;52.202;7.308;2023-05-07T05:27:29;9.70;;;8.70;;
15858;SDS011;8029;52.202;7.308;2023-05-07T05:29:55;13.45;;;10.85;;
15858;SDS011;8029;52.202;7.308;2023-05-07T05:32:21;10.00;;;9.10;;
15858;SDS011;8029;52.202;7.308;2023-05-07T05:34:47;9.77;;;8.80;;
15858;SDS011;8029;52.202;7.308;2023-05-07T05:37:13;11.95;;;9.23;;
15858;SDS011;8029;52.202;7.308;2023-05-07T05:39:39;11.98;;;8.98;;
15858;SDS011;8029;52.202;7.308;2023-05-07T05:42:06;11.38;;;9.13;;
15858;SDS011;8029;52.202;7.308;2023-05-07T05:44:32;12.93;;;10.07;;
15858;SDS011;8029;52.202;7.308;2023-05-07T05:46:58;13.25;;;8.68;;
15858;SDS011;8029;52.202;7.308;2023-05-07T05:49:24;11.05;;;8.77;;
15858;SDS011;8029;52.202;7.308;2023-05-07T05:51:50;13.57;;;9.80;;
15858;SDS011;8029;52.202;7.308;2023-05-07T05:54:16;13.02;;;8.65;;
15858;SDS011;8029;52.202;7.308;2023-05-07T05:56:43;12.77;;;9.80;;
15858;SDS011;8029;52.202;7.308;2023-05-07T05:59:09;8.02;;;7.00;;
15858;SDS011;8029;52.202;7.308;2023-05-07T06:01:35;11.65;;;8.93;;
15858;SDS011;8029;52.202;7.308;2023-05-07T06:04:02;23.58;;;8.93;;
15858;SDS011;8029;52.202;7.308;2023-05-07T06:06:28;13.68;;;8.98;;
15858;SDS011;8029;52.202;7.308;2023-05-07T06:08:54;10.25;;;7.50;;
15858;SDS011;8029;52.202;7.308;2023-05-07T06:11:20;12.30;;;9.13;;
15858;SDS011;8029;52.202;7.308;2023-05-07T06:13:46;10.45;;;8.50;;
15858;SDS011;8029;52.202;7.308;2023-05-07T06:16:12;11.10;;;8.07;;
15858;SDS011;8029;52.202;7.308;2023-05-07T06:18:38;8.90;;;8.00;;
15858;SDS011;8029;52.202;7.308;2023-05-07T06:21:04;8.00;;;7.20;;
15858;SDS011;8029;52.202;7.308;2023-05-07T06:23:30;8.40;;;7.60;;
15858;SDS011;8029;52.202;7.308;2023-05-07T06:25:56;10.70;;;8.38;;
15858;SDS011;8029;52.202;7.308;2023-05-07T06:28:22;11.52;;;8.73;;
15858;SDS011;8029;52.202;7.308;2023-05-07T06:30:48;9.57;;;8.57;;
15858;SDS011;8029;52.202;7.308;2023-05-07T06:33:15;9.20;;;7.88;;
15858;SDS011;8029;52.202;7.308;2023-05-07T06:35:41;8.85;;;7.95;;
15858;SDS011;8029;52.202;7.308;2023-05-07T06:38:07;8.35;;;7.47;;
15858;SDS011;8029;52.202;7.308;2023-05-07T06:40:33;9.93;;;7.35;;
15858;SDS011;8029;52.202;7.308;2023-05-07T06:42:59;12.13;;;7.68;;
15858;SDS011;8029;52.202;7.308;2023-05-07T06:45:25;9.50;;;8.43;;
15858;SDS011;8029;52.202;7.308;2023-05-07T06:47:51;8.85;;;7.50;;
15858;SDS011;8029;52.202;7.308;2023-05-07T06:50:17;7.90;;;7.15;;
15858;SDS011;8029;52.202;7.308;2023-05-07T06:52:43;13.27;;;8.88;;
15858;SDS011;8029;52.202;7.308;2023-05-07T06:55:09;9.27;;;7.03;;
15858;SDS011;8029;52.202;7.308;2023-05-07T06:57:36;8.55;;;7.47;;
15858;SDS011;8029;52.202;7.308;2023-05-07T07:00:02;10.05;;;9.00;;
15858;SDS011;8029;52.202;7.308;2023-05-07T07:02:29;8.20;;;6.53;;
15858;SDS011;8029;52.202;7.308;2023-05-07T07:04:55;8.85;;;7.47;;
15858;SDS011;8029;52.202;7.308;2023-05-07T07:07:21;10.00;;;7.78;;
15858;SDS011;8029;52.202;7.308;2023-05-07T07:09:47;7.88;;;6.65;;
15858;SDS011;8029;52.202;7.308;2023-05-07T07:12:13;8.88;;;7.82;;
15858;SDS011;8029;52.202;7.308;2023-05-07T07:14:39;9.38;;;7.20;;
15858;SDS011;8029;52.202;7.308;2023-05-07T07:17:05;12.80;;;7.40;;
15858;SDS011;8029;52.202;7.308;2023-05-07T07:19:31;17.02;;;7.05;;
15858;SDS011;8029;52.202;7.308;2023-05-07T07:21:57;8.32;;;7.13;;
15858;SDS011;8029;52.202;7.308;2023-05-07T07:24:23;7.47;;;6.78;;
15858;SDS011;8029;52.202;7.308;2023-05-07T07:26:49;8.55;;;7.05;;
15858;SDS011;8029;52.202;7.308;2023-05-07T07:29:15;7.47;;;6.72;;
15858;SDS011;8029;52.202;7.308;2023-05-07T07:31:41;9.90;;;7.55;;
15858;SDS011;8029;52.202;7.308;2023-05-07T07:34:07;9.98;;;8.55;;
15858;SDS011;8029;52.202;7.308;2023-05-07T07:36:33;11.25;;;9.18;;
15858;SDS011;8029;52.202;7.308;2023-05-07T07:38:59;8.77;;;7.63;;
15858;SDS011;8029;52.202;7.308;2023-05-07T07:41:25;9.40;;;6.88;;
15858;SDS011;8029;52.202;7.308;2023-05-07T07:43:51;9.15;;;6.90;;
15858;SDS011;8029;52.202;7.308;2023-05-07T07:46:17;9.75;;;7.60;;
15858;SDS011;8029;52.202;7.308;2023-05-07T07:48:43;6.45;;;5.72;;
15858;SDS011;8029;52.202;7.308;2023-05-07T07:51:09;10.73;;;7.72;;
15858;SDS011;8029;52.202;7.308;2023-05-07T07:53:35;9.48;;;7.63;;
15858;SDS011;8029;52.202;7.308;2023-05-07T07:56:01;9.32;;;7.95;;
15858;SDS011;8029;52.202;7.308;2023-05-07T07:58:27;11.30;;;7.97;;
15858;SDS011;8029;52.202;7.308;2023-05-07T08:00:53;10.20;;;7.63;;
15858;SDS011;8029;52.202;7.308;2023-05-07T08:03:20;10.85;;;8.10;;
15858;SDS011;8029;52.202;7.308;2023-05-07T08:05:47;18.98;;;7.25;;
15858;SDS011;8029;52.202;7.308;2023-05-07T08:08:15;8.60;;;7.10;;
15858;SDS011;8029;52.202;7.308;2023-05-07T08:10:41;11.70;;;7.50;;
15858;SDS011;8029;52.202;7.308;2023-05-07T08:13:07;9.73;;;7.40;;
15858;SDS011;8029;52.202;7.308;2023-05-07T08:15:33;7.28;;;6.38;;
15858;SDS011;8029;52.202;7.308;2023-05-07T08:18:00;7.70;;;6.95;;
15858;SDS011;8029;52.202;7.308;2023-05-07T08:20:26;7.25;;;6.57;;
15858;SDS011;8029;52.202;7.308;2023-05-07T08:22:53;9.93;;;7.03;;
15858;SDS011;8029;52.202;7.308;2023-05-07T08:25:19;6.60;;;5.88;;
15858;SDS011;8029;52.202;7.308;2023-05-07T08:27:45;9.27;;;8.02;;
15858;SDS011;8029;52.202;7.308;2023-05-07T08:30:11;9.93;;;7.70;;
15858;SDS011;8029;52.202;7.308;2023-05-07T08:32:37;7.28;;;6.38;;
15858;SDS011;8029;52.202;7.308;2023-05-07T08:35:04;10.48;;;7.72;;
15858;SDS011;8029;52.202;7.308;2023-05-07T08:37:30;8.70;;;6.53;;
15858;SDS011;8029;52.202;7.308;2023-05-07T08:39:56;8.23;;;6.63;;
15858;SDS011;8029;52.202;7.308;2023-05-07T08:42:23;12.30;;;8.45;;
15858;SDS011;8029;52.202;7.308;2023-05-07T08:44:50;8.75;;;6.45;;
15858;SDS011;8029;52.202;7.308;2023-05-07T08:47:20;8.95;;;7.13;;
15858;SDS011;8029;52.202;7.308;2023-05-07T08:49:48;13.77;;;8.10;;
15858;SDS011;8029;52.202;7.308;2023-05-07T08:52:15;11.45;;;7.72;;
15858;SDS011;8029;52.202;7.308;2023-05-07T08:54:44;12.18;;;8.63;;
15858;SDS011;8029;52.202;7.308;2023-05-07T08:57:10;8.00;;;6.68;;
15858;SDS011;8029;52.202;7.308;2023-05-07T08:59:36;11.50;;;8.10;;
15858;SDS011;8029;52.202;7.308;2023-05-07T09:02:02;7.00;;;6.15;;
15858;SDS011;8029;52.202;7.308;2023-05-07T09:04:28;7.63;;;5.82;;
15858;SDS011;8029;52.202;7.308;2023-05-07T09:06:56;8.07;;;6.72;;
15858;SDS011;8029;52.202;7.308;2023-05-07T09:09:28;11.20;;;7.55;;
15858;SDS011;8029;52.202;7.308;2023-05-07T09:11:57;6.45;;;5.82;;
15858;SDS011;8029;52.202;7.308;2023-05-07T09:14:24;10.07;;;8.43;;
15858;SDS011;8029;52.202;7.308;2023-05-07T09:16:52;9.45;;;6.88;;
15858;SDS011;8029;52.202;7.308;2023-05-07T09:19:22;10.77;;;7.68;;
15858;SDS011;8029;52.202;7.308;2023-05-07T09:21:48;7.60;;;6.18;;
15858;SDS011;8029;52.202;7.308;2023-05-07T09:24:17;15.60;;;8.02;;
15858;SDS011;8029;52.202;7.308;2023-05-07T09:26:43;12.88;;;7.25;;
15858;SDS011;8029;52.202;7.308;2023-05-07T09:29:09;9.65;;;6.97;;
15858;SDS011;8029;52.202;7.308;2023-05-07T09:31:36;6.60;;;5.63;;
15858;SDS011;8029;52.202;7.308;2023-05-07T09:34:04;8.30;;;7.05;;
15858;SDS011;8029;52.202;7.308;2023-05-07T09:36:31;8.13;;;7.25;;
15858;SDS011;8029;52.202;7.308;2023-05-07T09:39:00;9.07;;;6.72;;
15858;SDS011;8029;52.202;7.308;2023-05-07T09:41:28;7.97;;;7.20;;
15858;SDS011;8029;52.202;7.308;2023-05-07T09:43:57;10.80;;;7.30;;
15858;SDS011;8029;52.202;7.308;2023-05-07T09:46:30;8.07;;;7.22;;
15858;SDS011;8029;52.202;7.308;2023-05-07T09:48:57;13.65;;;8.20;;
15858;SDS011;8029;52.202;7.308;2023-05-07T09:53:52;9.23;;;6.70;;
15858;SDS011;8029;52.202;7.308;2023-05-07T09:56:18;11.80;;;6.60;;
15858;SDS011;8029;52.202;7.308;2023-05-07T09:58:45;8.27;;;6.70;;
15858;SDS011;8029;52.202;7.308;2023-05-07T10:01:12;7.95;;;6.40;;
15858;SDS011;8029;52.202;7.308;2023-05-07T10:03:41;8.45;;;6.85;;
15858;SDS011;8029;52.202;7.308;2023-05-07T10:06:09;10.35;;;7.05;;
15858;SDS011;8029;52.202;7.308;2023-05-07T10:08:35;7.93;;;5.70;;
15858;SDS011;8029;52.202;7.308;2023-05-07T10:11:03;9.80;;;8.50;;
15858;SDS011;8029;52.202;7.308;2023-05-07T10:13:29;8.52;;;6.30;;
15858;SDS011;8029;52.202;7.308;2023-05-07T10:15:55;7.97;;;6.50;;
15858;SDS011;8029;52.202;7.308;2023-05-07T10:18:21;8.38;;;6.35;;
15858;SDS011;8029;52.202;7.308;2023-05-07T10:20:48;10.63;;;7.40;;
15858;SDS011;8029;52.202;7.308;2023-05-07T10:23:18;7.38;;;6.07;;
15858;SDS011;8029;52.202;7.308;2023-05-07T10:25:45;9.77;;;6.55;;
15858;SDS011;8029;52.202;7.308;2023-05-07T10:28:11;6.18;;;5.22;;
15858;SDS011;8029;52.202;7.308;2023-05-07T10:33:10;10.23;;;5.85;;
15858;SDS011;8029;52.202;7.308;2023-05-07T10:35:38;14.38;;;7.28;;
15858;SDS011;8029;52.202;7.308;2023-05-07T10:38:06;6.07;;;5.45;;
15858;SDS011;8029;52.202;7.308;2023-05-07T10:40:33;7.93;;;5.93;;
15858;SDS011;8029;52.202;7.308;2023-05-07T10:43:00;6.43;;;5.70;;
15858;SDS011;8029;52.202;7.308;2023-05-07T10:45:27;7.85;;;5.82;;
15858;SDS011;8029;52.202;7.308;2023-05-07T10:48:12;8.80;;;6.53;;
15858;SDS011;8029;52.202;7.308;2023-05-07T10:50:39;10.90;;;7.10;;
15858;SDS011;8029;52.202;7.308;2023-05-07T10:58:22;8.27;;;5.28;;
15858;SDS011;8029;52.202;7.308;2023-05-07T11:00:48;7.78;;;5.82;;
15858;SDS011;8029;52.202;7.308;2023-05-07T11:03:15;6.35;;;4.95;;
15858;SDS011;8029;52.202;7.308;2023-05-07T11:05:41;8.88;;;6.25;;
15858;SDS011;8029;52.202;7.308;2023-05-07T11:08:08;10.02;;;5.80;;
15858;SDS011;8029;52.202;7.308;2023-05-07T11:11:08;7.35;;;5.95;;
15858;SDS011;8029;52.202;7.308;2023-05-07T11:13:46;5.60;;;4.97;;
15858;SDS011;8029;52.202;7.308;2023-05-07T11:16:22;11.35;;;6.18;;
15858;SDS011;8029;52.202;7.308;2023-05-07T11:18:49;8.50;;;5.65;;
15858;SDS011;8029;52.202;7.308;2023-05-07T11:24:00;7.65;;;5.82;;
15858;SDS011;8029;52.202;7.308;2023-05-07T11:26:27;7.38;;;5.35;;
15858;SDS011;8029;52.202;7.308;2023-05-07T11:28:53;5.80;;;4.47;;
15858;SDS011;8029;52.202;7.308;2023-05-07T11:31:20;6.85;;;5.20;;
15858;SDS011;8029;52.202;7.308;2023-05-07T11:33:47;6.25;;;5.32;;
15858;SDS011;8029;52.202;7.308;2023-05-07T11:36:13;5.10;;;4.57;;
15858;SDS011;8029;52.202;7.308;2023-05-07T11:38:39;10.25;;;5.45;;
15858;SDS011;8029;52.202;7.308;2023-05-07T11:41:06;6.93;;;4.70;;
15858;SDS011;8029;52.202;7.308;2023-05-07T11:43:33;5.72;;;5.03;;
15858;SDS011;8029;52.202;7.308;2023-05-07T11:46:07;7.07;;;5.22;;
15858;SDS011;8029;52.202;7.308;2023-05-07T11:48:34;10.15;;;4.82;;
15858;SDS011;8029;52.202;7.308;2023-05-07T11:51:00;7.35;;;4.88;;
15858;SDS011;8029;52.202;7.308;2023-05-07T11:53:27;9.10;;;4.65;;
15858;SDS011;8029;52.202;7.308;2023-05-07T11:55:56;4.97;;;4.47;;
15858;SDS011;8029;52.202;7.308;2023-05-07T11:58:23;5.78;;;3.67;;
15858;SDS011;8029;52.202;7.308;2023-05-07T12:00:51;4.32;;;3.70;;
15858;SDS011;8029;52.202;7.308;2023-05-07T12:03:17;4.70;;;4.25;;
15858;SDS011;8029;52.202;7.308;2023-05-07T12:05:47;11.18;;;4.25;;
15858;SDS011;8029;52.202;7.308;2023-05-07T12:08:16;5.53;;;3.75;;
15858;SDS011;8029;52.202;7.308;2023-05-07T12:10:43;5.72;;;4.65;;
15858;SDS011;8029;52.202;7.308;2023-05-07T12:15:41;4.53;;;3.90;;
15858;SDS011;8029;52.202;7.308;2023-05-07T12:18:07;5.20;;;4.13;;
15858;SDS011;8029;52.202;7.308;2023-05-07T12:20:34;4.25;;;3.67;;
15858;SDS011;8029;52.202;7.308;2023-05-07T12:23:01;4.75;;;3.47;;
15858;SDS011;8029;52.202;7.308;2023-05-07T12:25:29;4.40;;;2.97;;
15858;SDS011;8029;52.202;7.308;2023-05-07T12:27:56;11.05;;;4.18;;
15858;SDS011;8029;52.202;7.308;2023-05-07T12:30:23;3.70;;;3.15;;
15858;SDS011;8029;52.202;7.308;2023-05-07T12:32:52;3.95;;;3.28;;
15858;SDS011;8029;52.202;7.308;2023-05-07T12:35:25;3.72;;;3.40;;
15858;SDS011;8029;52.202;7.308;2023-05-07T12:37:55;4.28;;;3.53;;
15858;SDS011;8029;52.202;7.308;2023-05-07T12:40:21;4.45;;;3.13;;
15858;SDS011;8029;52.202;7.308;2023-05-07T12:42:47;5.60;;;3.58;;
15858;SDS011;8029;52.202;7.308;2023-05-07T12:45:20;4.45;;;4.05;;
15858;SDS011;8029;52.202;7.308;2023-05-07T12:47:46;4.20;;;3.55;;
15858;SDS011;8029;52.202;7.308;2023-05-07T12:50:13;7.35;;;3.00;;
15858;SDS011;8029;52.202;7.308;2023-05-07T12:52:39;3.10;;;2.60;;
15858;SDS011;8029;52.202;7.308;2023-05-07T12:55:08;4.60;;;3.13;;
15858;SDS011;8029;52.202;7.308;2023-05-07T12:57:41;4.40;;;2.83;;
15858;SDS011;8029;52.202;7.308;2023-05-07T13:00:07;2.50;;;2.30;;
15858;SDS011;8029;52.202;7.308;2023-05-07T13:02:34;2.97;;;2.58;;
15858;SDS011;8029;52.202;7.308;2023-05-07T13:05:03;3.08;;;2.67;;
15858;SDS011;8029;52.202;7.308;2023-05-07T13:07:29;3.50;;;2.55;;
15858;SDS011;8029;52.202;7.308;2023-05-07T13:09:55;5.13;;;3.10;;
15858;SDS011;8029;52.202;7.308;2023-05-07T13:12:21;3.38;;;2.88;;
15858;SDS011;8029;52.202;7.308;2023-05-07T13:14:47;3.92;;;3.35;;
15858;SDS011;8029;52.202;7.308;2023-05-07T13:17:13;2.33;;;2.13;;
15858;SDS011;8029;52.202;7.308;2023-05-07T13:19:39;2.35;;;2.15;;
15858;SDS011;8029;52.202;7.308;2023-05-07T13:22:05;3.20;;;2.85;;
15858;SDS011;8029;52.202;7.308;2023-05-07T13:24:31;3.75;;;3.35;;
15858;SDS011;8029;52.202;7.308;2023-05-07T13:26:57;3.60;;;2.67;;
15858;SDS011;8029;52.202;7.308;2023-05-07T13:29:23;2.05;;;1.92;;
15858;SDS011;8029;52.202;7.308;2023-05-07T13:31:54;2.75;;;2.55;;
15858;SDS011;8029;52.202;7.308;2023-05-07T13:34:20;4.50;;;3.10;;
15858;SDS011;8029;52.202;7.308;2023-05-07T13:36:46;3.03;;;2.78;;
15858;SDS011;8029;52.202;7.308;2023-05-07T13:39:12;3.47;;;2.85;;
15858;SDS011;8029;52.202;7.308;2023-05-07T13:41:38;3.55;;;2.90;;
15858;SDS011;8029;52.202;7.308;2023-05-07T13:44:04;2.72;;;2.45;;
15858;SDS011;8029;52.202;7.308;2023-05-07T13:46:30;2.72;;;2.53;;
15858;SDS011;8029;52.202;7.308;2023-05-07T13:48:56;4.47;;;4.03;;
15858;SDS011;8029;52.202;7.308;2023-05-07T13:51:23;6.28;;;2.90;;
15858;SDS011;8029;52.202;7.308;2023-05-07T13:53:49;3.05;;;2.30;;
15858;SDS011;8029;52.202;7.308;2023-05-07T13:56:15;1.52;;;1.42;;
15858;SDS011;8029;52.202;7.308;2023-05-07T13:58:41;2.97;;;2.67;;
15858;SDS011;8029;52.202;7.308;2023-05-07T14:01:07;3.05;;;2.67;;
15858;SDS011;8029;52.202;7.308;2023-05-07T14:03:33;3.47;;;2.78;;
15858;SDS011;8029;52.202;7.308;2023-05-07T14:06:00;3.13;;;2.67;;
15858;SDS011;8029;52.202;7.308;2023-05-07T14:08:26;2.90;;;2.38;;
15858;SDS011;8029;52.202;7.308;2023-05-07T14:10:53;2.92;;;2.65;;
15858;SDS011;8029;52.202;7.308;2023-05-07T14:13:19;2.72;;;2.47;;
15858;SDS011;8029;52.202;7.308;2023-05-07T14:15:45;2.10;;;1.90;;
15858;SDS011;8029;52.202;7.308;2023-05-07T14:18:15;1.90;;;1.80;;
15858;SDS011;8029;52.202;7.308;2023-05-07T14:20:41;2.70;;;2.25;;
15858;SDS011;8029;52.202;7.308;2023-05-07T14:23:08;3.05;;;2.17;;
15858;SDS011;8029;52.202;7.308;2023-05-07T14:25:34;2.53;;;2.33;;
15858;SDS011;8029;52.202;7.308;2023-05-07T14:28:00;2.75;;;2.28;;
15858;SDS011;8029;52.202;7.308;2023-05-07T14:30:26;2.30;;;2.10;;
15858;SDS011;8029;52.202;7.308;2023-05-07T14:32:52;2.35;;;2.08;;
15858;SDS011;8029;52.202;7.308;2023-05-07T14:35:18;2.42;;;2.22;;
15858;SDS011;8029;52.202;7.308;2023-05-07T14:37:45;4.00;;;2.75;;
15858;SDS011;8029;52.202;7.308;2023-05-07T14:40:11;2.85;;;2.38;;
15858;SDS011;8029;52.202;7.308;2023-05-07T14:42:37;2.50;;;2.30;;
15858;SDS011;8029;52.202;7.308;2023-05-07T14:45:03;4.05;;;2.47;;
15858;SDS011;8029;52.202;7.308;2023-05-07T14:47:29;3.25;;;2.85;;
15858;SDS011;8029;52.202;7.308;2023-05-07T14:49:56;3.33;;;2.88;;
15858;SDS011;8029;52.202;7.308;2023-05-07T14:52:23;2.72;;;2.08;;
15858;SDS011;8029;52.202;7.308;2023-05-07T14:54:50;3.40;;;2.28;;
15858;SDS011;8029;52.202;7.308;2023-05-07T14:57:16;3.22;;;2.72;;
15858;SDS011;8029;52.202;7.308;2023-05-07T14:59:43;3.22;;;2.65;;
15858;SDS011;8029;52.202;7.308;2023-05-07T15:02:10;3.22;;;2.50;;
15858;SDS011;8029;52.202;7.308;2023-05-07T15:04:37;2.47;;;2.13;;
15858;SDS011;8029;52.202;7.308;2023-05-07T15:07:03;3.50;;;2.65;;
15858;SDS011;8029;52.202;7.308;2023-05-07T15:09:29;4.25;;;2.92;;
15858;SDS011;8029;52.202;7.308;2023-05-07T15:11:55;2.70;;;2.33;;